This is the latest recevied weather packets stored in our database for station/object DC1RS. If no packets are shown the sender has not sent any weather packets the latest 10 day(s).
| Time | Temp. | Humidity | Pressure | Rain* | Wind** | Luminosity | Snow |
|---|---|---|---|---|---|---|---|
| 1777966850 | 18.89° C | 59% | 1008 hPa | 0 mm | - | 465 W/m² | - |
| 1777966331 | 19.44° C | 61% | 1008.2 hPa | 0 mm | - | 443 W/m² | - |
| 1777964801 | 18.33° C | 62% | 1008.2 hPa | 0 mm | - | 408 W/m² | - |
| 1777963071 | 17.22° C | 66% | 1008.4 hPa | 0 mm | - | 322 W/m² | - |
| 1777962741 | 17.22° C | 67% | 1008.4 hPa | 0 mm | - | 304 W/m² | - |
| 1777962081 | 16.11° C | 68% | 1008.4 hPa | 0 mm | - | 262 W/m² | - |
| 1777960521 | 16.11° C | 67% | 1008.5 hPa | 0 mm | - | 179 W/m² | - |
| 1777958031 | 14.44° C | 74% | 1008.4 hPa | 0 mm | - | 74 W/m² | - |
| 1777956441 | 12.22° C | 79% | 1008.3 hPa | 0 mm | - | 40 W/m² | - |
| 1777955151 | 11.67° C | 82% | 1008.2 hPa | 0 mm | - | 25 W/m² | - |
| 1777954851 | 11.11° C | 81% | 1008.2 hPa | 0 mm | - | 20 W/m² | - |
| 1777953321 | 11.67° C | 79% | 1008.3 hPa | 0 mm | - | 7 W/m² | - |
| 1777951731 | 11.67° C | 78% | 1008.1 hPa | 0 mm | - | 0 W/m² | - |
| 1777949621 | 12.78° C | 75% | 1008.1 hPa | 0 mm | - | 0 W/m² | - |
| 1777947891 | 13.89° C | 71% | 1007.8 hPa | 0 mm | - | 0 W/m² | - |
| 1777946601 | 13.89° C | 70% | 1008 hPa | 0 mm | - | 0 W/m² | - |
| 1777945011 | 13.89° C | 70% | 1007.8 hPa | 0 mm | - | 0 W/m² | - |
| 1777942330 | 14.44° C | 68% | 1008.1 hPa | 0 mm | - | 0 W/m² | - |
| 1777940741 | 15° C | 66% | 1008.3 hPa | 0 mm | - | 0 W/m² | - |
| 1777939341 | 15° C | 66% | 1008.9 hPa | 0 mm | - | 0 W/m² | - |
| 1777937721 | 16.11° C | 59% | 1008.7 hPa | 0 mm | - | 0 W/m² | - |
| 1777936131 | 16.67° C | 57% | 1008.7 hPa | 0 mm | - | 0 W/m² | - |
| 1777935941 | 16.67° C | 58% | 1008.8 hPa | 0 mm | - | 0 W/m² | - |
| 1777934382 | 16.11° C | 58% | 1008.7 hPa | 0 mm | - | 0 W/m² | - |
| 1777932651 | 16.67° C | 56% | 1008.9 hPa | 0 mm | - | 0 W/m² | - |
* Rain latest hour (hover to see other rain measurements)
** Current wind speed in m/s (hover to see current wind gust speed)